Time;durP1;ratioP1;P1;durP2;ratioP2;P2;SDS_P1;SDS_P2;PMS_P1;PMS_P2;Temp;Humidity;BMP_temperature;BMP_pressure;BME280_temperature;BME280_humidity;BME280_pressure;Samples;Min_cycle;Max_cycle;Signal;HPM_P1;HPM_P2
2022/04/10 00:00:13;;;;;;;5.25;2.00;;;;;;;-0.25;100.00;96575.44;5022578;28;20069;-70
2022/04/10 00:02:39;;;;;;;6.65;2.22;;;;;;;-0.09;100.00;96570.84;5026891;28;20583;-69
2022/04/10 00:05:05;;;;;;;8.57;1.85;;;;;;;0.04;100.00;96575.50;5022084;28;20044;-70
2022/04/10 00:07:31;;;;;;;10.38;2.65;;;;;;;0.09;100.00;96580.25;5025631;28;20049;-69
2022/04/10 00:09:56;;;;;;;5.07;2.00;;;;;;;-0.04;100.00;96570.34;5023224;28;20439;-70
2022/04/10 00:12:22;;;;;;;6.78;2.00;;;;;;;-0.20;100.00;96575.75;5025240;28;20041;-70
2022/04/10 00:14:47;;;;;;;10.88;2.10;;;;;;;-0.29;100.00;96572.38;5031182;28;20756;-70
2022/04/10 00:17:13;;;;;;;10.32;2.13;;;;;;;-0.32;100.00;96578.78;5024299;28;20569;-69
2022/04/10 00:19:39;;;;;;;5.93;1.83;;;;;;;-0.23;100.00;96566.41;5026650;28;20108;-71
2022/04/10 00:22:05;;;;;;;5.32;2.13;;;;;;;-0.11;100.00;96578.13;5027813;28;20271;-71
2022/04/10 00:24:31;;;;;;;5.18;2.00;;;;;;;-0.21;100.00;96569.66;5024917;28;20038;-69
2022/04/10 00:26:56;;;;;;;6.15;2.00;;;;;;;-0.38;100.00;96569.00;5022674;28;20526;-71
2022/04/10 00:29:22;;;;;;;7.38;2.08;;;;;;;-0.41;100.00;96579.84;5021917;28;20052;-71
2022/04/10 00:31:48;;;;;;;6.20;2.08;;;;;;;-0.49;100.00;96579.91;5025251;28;20060;-71
2022/04/10 00:34:14;;;;;;;6.18;1.90;;;;;;;-0.57;100.00;96579.97;5023869;28;20048;-71
2022/04/10 00:36:40;;;;;;;11.80;2.60;;;;;;;-0.63;100.00;96581.50;5057435;28;20549;-71
2022/04/10 00:39:05;;;;;;;5.35;2.20;;;;;;;-0.70;100.00;96563.97;5027695;28;20051;-70
2022/04/10 00:41:31;;;;;;;5.82;2.42;;;;;;;-0.69;100.00;96573.50;5026390;28;20261;-69
2022/04/10 00:44:09;;;;;;;5.90;1.95;;;;;;;-0.74;100.00;96570.59;5032931;28;20555;-69
2022/04/10 00:46:35;;;;;;;5.70;2.22;;;;;;;-0.72;100.00;96579.09;5026615;28;20123;-70
2022/04/10 00:49:01;;;;;;;8.90;2.25;;;;;;;-0.66;100.00;96581.84;5023617;28;20041;-69
2022/04/10 00:54:26;;;;;;;4.82;2.10;;;;;;;-0.26;100.00;96574.63;5000794;28;20622;-71
2022/04/10 00:56:54;;;;;;;6.63;2.03;;;;;;;-0.16;100.00;96577.81;5025250;28;20108;-69
2022/04/10 00:59:20;;;;;;;9.27;2.28;;;;;;;-0.07;100.00;96581.22;5024722;28;20040;-69
2022/04/10 01:01:47;;;;;;;9.43;2.10;;;;;;;0.02;100.00;96576.69;5024846;28;20091;-70
2022/04/10 01:04:14;;;;;;;8.05;2.45;;;;;;;0.08;100.00;96583.84;5024364;28;20094;-69
2022/04/10 01:06:40;;;;;;;12.00;2.50;;;;;;;0.08;100.00;96586.47;5038336;28;20313;-70
2022/04/10 01:09:07;;;;;;;5.97;1.80;;;;;;;0.16;100.00;96592.50;5053223;28;20048;-69
2022/04/10 01:11:33;;;;;;;6.00;2.03;;;;;;;0.16;100.00;96589.88;5033112;28;20120;-69
2022/04/10 01:14:00;;;;;;;5.22;2.10;;;;;;;-0.09;100.00;96584.00;5037979;28;20045;-70
2022/04/10 01:16:30;;;;;;;6.45;2.00;;;;;;;-0.23;100.00;96592.72;5026114;28;20548;-71
2022/04/10 01:18:57;;;;;;;6.70;1.85;;;;;;;-0.13;100.00;96600.34;5028704;28;20042;-69
2022/04/10 01:21:25;;;;;;;7.68;2.15;;;;;;;-0.02;100.00;96594.63;5030532;28;20040;-69
2022/04/10 01:23:55;;;;;;;4.57;2.05;;;;;;;0.14;100.00;96596.28;5058687;28;20037;-70
2022/04/10 01:26:22;;;;;;;4.20;1.80;;;;;;;0.29;100.00;96591.88;5053324;28;20051;-69
2022/04/10 01:29:14;;;;;;;4.35;1.98;;;;;;;0.39;100.00;96596.84;5032450;28;20153;-69
2022/04/10 01:31:46;;;;;;;4.75;1.88;;;;;;;0.39;100.00;96595.06;5020867;28;20052;-70
2022/04/10 01:34:16;;;;;;;10.10;1.92;;;;;;;0.46;100.00;96603.03;5022600;28;20095;-70
2022/04/10 01:36:44;;;;;;;7.78;2.20;;;;;;;0.55;100.00;96596.69;5025137;28;20049;-71
2022/04/10 01:39:11;;;;;;;6.55;2.63;;;;;;;0.47;100.00;96604.69;5020175;28;20555;-70
2022/04/10 01:41:38;;;;;;;4.45;1.80;;;;;;;0.34;100.00;96609.75;5024196;28;20503;-69
2022/04/10 01:44:09;;;;;;;4.68;2.03;;;;;;;0.16;100.00;96595.13;5025172;28;20568;-69
2022/04/10 01:46:36;;;;;;;4.00;1.80;;;;;;;0.12;100.00;96601.75;5053728;28;20670;-70
2022/04/10 01:49:05;;;;;;;8.65;2.05;;;;;;;0.24;100.00;96602.13;5036248;28;20041;-69
2022/04/10 01:51:32;;;;;;;5.07;1.88;;;;;;;0.27;100.00;96602.59;5023226;28;20048;-69
2022/04/10 01:53:59;;;;;;;5.00;1.83;;;;;;;0.16;100.00;96600.41;5021136;28;20041;-72
2022/04/10 01:56:25;;;;;;;7.05;2.22;;;;;;;-0.11;100.00;96601.78;5055094;28;20068;-70
2022/04/10 01:58:52;;;;;;;5.32;1.98;;;;;;;-0.35;100.00;96597.56;5039877;28;20056;-69
2022/04/10 02:01:18;;;;;;;6.93;2.20;;;;;;;-0.48;100.00;96594.69;5027876;28;20519;-71
2022/04/10 02:03:46;;;;;;;5.65;2.15;;;;;;;-0.54;100.00;96599.84;5021256;28;20045;-71
2022/04/10 02:06:14;;;;;;;5.25;2.30;;;;;;;-0.62;100.00;96606.81;5031601;28;20043;-69
2022/04/10 02:08:43;;;;;;;7.20;1.95;;;;;;;-0.69;100.00;96600.63;5028722;28;20037;-69
2022/04/10 02:11:21;;;;;;;7.07;1.83;;;;;;;-0.64;100.00;96606.16;5026292;28;20041;-71
2022/04/10 02:13:49;;;;;;;7.85;2.50;;;;;;;-0.48;100.00;96609.66;5030346;28;20775;-69
2022/04/10 02:16:19;;;;;;;6.78;2.10;;;;;;;-0.31;100.00;96604.13;5022037;28;20032;-69
2022/04/10 02:18:47;;;;;;;4.47;1.95;;;;;;;-0.14;100.00;96596.09;5027268;28;20558;-70
2022/04/10 02:21:13;;;;;;;5.90;1.90;;;;;;;-0.04;100.00;96599.28;5022224;28;20064;-70
2022/04/10 02:23:40;;;;;;;5.45;2.20;;;;;;;-0.03;100.00;96595.63;5025284;28;20439;-70
2022/04/10 02:26:07;;;;;;;4.63;2.00;;;;;;;0.07;100.00;96606.72;5021554;28;20041;-70
2022/04/10 02:28:32;;;;;;;8.55;2.47;;;;;;;0.11;100.00;96607.19;5022491;28;20518;-69
2022/04/10 02:30:58;;;;;;;9.52;2.65;;;;;;;0.18;100.00;96606.28;5023014;28;20060;-71
2022/04/10 02:33:23;;;;;;;6.53;2.90;;;;;;;0.27;100.00;96607.84;5034316;28;20037;-71
2022/04/10 02:35:49;;;;;;;8.02;2.75;;;;;;;0.34;100.00;96601.88;5035487;28;20048;-69
2022/04/10 02:38:19;;;;;;;5.03;2.20;;;;;;;0.31;100.00;96610.91;5024800;28;20519;-71
2022/04/10 02:40:45;;;;;;;6.70;2.33;;;;;;;0.29;100.00;96602.41;5033583;28;20697;-69
2022/04/10 02:43:13;;;;;;;7.22;2.15;;;;;;;0.16;100.00;96599.59;5026487;28;20043;-69
2022/04/10 02:45:43;;;;;;;5.78;2.58;;;;;;;0.12;100.00;96603.56;5030914;28;20060;-69
2022/04/10 02:48:09;;;;;;;5.18;2.17;;;;;;;0.16;100.00;96608.31;5029362;28;20037;-70
2022/04/10 02:50:39;;;;;;;5.20;2.50;;;;;;;0.13;100.00;96608.63;5029653;28;20068;-70
2022/04/10 02:53:05;;;;;;;7.60;2.30;;;;;;;0.00;100.00;96613.72;5042223;28;20472;-69
2022/04/10 02:55:31;;;;;;;5.53;2.40;;;;;;;-0.21;100.00;96608.31;5035666;28;20029;-70
2022/04/10 02:57:58;;;;;;;9.77;2.88;;;;;;;-0.37;100.00;96612.69;5031549;28;20060;-69
2022/04/10 03:00:23;;;;;;;4.57;2.50;;;;;;;-0.49;100.00;96614.09;5023885;28;20439;-69
2022/04/10 03:02:49;;;;;;;5.47;2.38;;;;;;;-0.56;100.00;96618.41;5034840;28;20041;-71
2022/04/10 03:05:17;;;;;;;4.95;2.50;;;;;;;-0.65;100.00;96622.09;5030952;28;20047;-69
2022/04/10 03:07:44;;;;;;;7.30;2.47;;;;;;;-0.66;100.00;96629.16;5041223;28;20060;-70
2022/04/10 03:10:10;;;;;;;7.32;2.97;;;;;;;-0.60;100.00;96632.91;5041192;28;20054;-69
2022/04/10 03:12:37;;;;;;;4.57;2.70;;;;;;;-0.44;100.00;96635.44;5034569;28;20037;-71
2022/04/10 03:15:03;;;;;;;7.50;2.35;;;;;;;-0.40;100.00;96628.00;5033170;28;20490;-69
2022/04/10 03:17:29;;;;;;;10.60;2.63;;;;;;;-0.33;100.00;96632.38;5043394;28;20037;-69
2022/04/10 03:19:56;;;;;;;9.70;2.88;;;;;;;-0.24;100.00;96632.31;5016552;28;20076;-69
2022/04/10 03:22:22;;;;;;;5.22;2.70;;;;;;;-0.38;100.00;96629.47;5057728;28;20040;-72
2022/04/10 03:24:48;;;;;;;9.95;3.10;;;;;;;-0.43;100.00;96634.44;5056921;28;20104;-71
2022/04/10 03:27:14;;;;;;;7.20;2.90;;;;;;;-0.34;100.00;96637.81;5027222;28;20696;-69
2022/04/10 03:29:40;;;;;;;9.23;2.40;;;;;;;-0.21;100.00;96626.72;5027202;28;20501;-71
2022/04/10 03:32:07;;;;;;;12.35;3.42;;;;;;;-0.03;100.00;96635.09;5033648;28;20122;-70
2022/04/10 03:34:32;;;;;;;5.47;2.50;;;;;;;0.07;100.00;96642.75;5041114;28;20051;-71
2022/04/10 03:36:59;;;;;;;7.65;2.97;;;;;;;0.19;100.00;96651.84;5034781;28;20048;-70
2022/04/10 03:39:25;;;;;;;6.78;2.95;;;;;;;0.27;100.00;96655.22;5027648;28;20419;-69
2022/04/10 03:41:52;;;;;;;7.45;2.97;;;;;;;0.32;100.00;96646.00;5028889;28;20061;-71
2022/04/10 03:44:19;;;;;;;5.90;3.08;;;;;;;0.34;100.00;96655.34;5031339;28;20075;-69
2022/04/10 03:46:45;;;;;;;6.25;2.65;;;;;;;0.32;100.00;96657.34;5058057;28;20648;-69
2022/04/10 03:49:10;;;;;;;8.73;3.35;;;;;;;0.10;100.00;96647.66;5056153;28;20045;-71
2022/04/10 03:51:36;;;;;;;13.55;3.22;;;;;;;-0.07;100.00;96650.44;5027819;28;20053;-69
2022/04/10 03:54:02;;;;;;;9.45;3.38;;;;;;;-0.29;100.00;96654.72;5032847;28;20041;-71
2022/04/10 03:56:27;;;;;;;7.18;2.83;;;;;;;-0.29;100.00;96656.53;5028479;28;20047;-69
2022/04/10 03:58:53;;;;;;;10.32;2.90;;;;;;;-0.22;100.00;96646.94;5050559;28;20174;-69
2022/04/10 04:01:19;;;;;;;6.93;3.05;;;;;;;-0.13;100.00;96652.97;5054162;28;20061;-71
2022/04/10 04:03:44;;;;;;;9.35;2.80;;;;;;;-0.17;100.00;96659.53;5033138;28;20033;-71
2022/04/10 04:06:10;;;;;;;9.00;3.03;;;;;;;-0.14;100.00;96667.94;5032792;28;20132;-69
2022/04/10 04:08:36;;;;;;;8.50;2.85;;;;;;;-0.19;100.00;96667.63;5054948;28;20409;-69
2022/04/10 04:11:01;;;;;;;13.65;4.05;;;;;;;-0.22;100.00;96673.25;5027609;28;20127;-69
2022/04/10 04:13:28;;;;;;;11.40;2.78;;;;;;;-0.37;100.00;96677.63;5024601;28;20041;-71
2022/04/10 04:15:53;;;;;;;8.05;2.67;;;;;;;-0.50;100.00;96686.06;5023361;28;20055;-70
2022/04/10 04:18:19;;;;;;;9.35;2.92;;;;;;;-0.61;100.00;96679.41;5029086;28;20042;-71
2022/04/10 04:20:44;;;;;;;6.60;2.85;;;;;;;-0.83;100.00;96692.50;5026250;28;20797;-69
2022/04/10 04:23:15;;;;;;;7.10;3.20;;;;;;;-0.96;100.00;96685.97;5028417;28;20579;-69
2022/04/10 04:25:41;;;;;;;8.83;2.97;;;;;;;-0.87;100.00;96690.19;5034026;28;20041;-69
2022/04/10 04:28:09;;;;;;;7.30;2.88;;;;;;;-0.78;100.00;96701.50;5027921;28;20264;-70
2022/04/10 04:30:35;;;;;;;8.48;2.88;;;;;;;-0.81;100.00;96701.84;5032661;28;20530;-69
2022/04/10 04:33:03;;;;;;;7.68;3.40;;;;;;;-0.92;100.00;96704.88;5020791;28;20056;-70
2022/04/10 04:35:29;;;;;;;6.57;2.80;;;;;;;-0.91;100.00;96704.69;5031650;28;20484;-70
2022/04/10 04:37:57;;;;;;;11.13;3.10;;;;;;;-0.80;100.00;96707.91;5032870;28;20041;-69
2022/04/10 04:40:25;;;;;;;12.70;3.65;;;;;;;-0.73;100.00;96716.75;5025524;28;20047;-69
2022/04/10 04:42:52;;;;;;;9.43;3.03;;;;;;;-0.88;100.00;96704.34;5056174;28;20041;-69
2022/04/10 04:45:22;;;;;;;8.93;2.95;;;;;;;-0.96;100.00;96707.00;5038773;28;20041;-70
2022/04/10 04:47:59;;;;;;;5.35;3.30;;;;;;;-0.67;100.00;96710.81;5023299;28;20111;-69
2022/04/10 04:50:24;;;;;;;7.88;2.63;;;;;;;-0.52;100.00;96719.63;5055700;28;20343;-69
2022/04/10 04:52:51;;;;;;;8.93;3.03;;;;;;;-0.30;100.00;96718.00;5028094;28;20276;-69
2022/04/10 04:55:17;;;;;;;6.97;3.00;;;;;;;-0.14;100.00;96717.09;5039402;28;20531;-69
2022/04/10 04:57:42;;;;;;;10.35;3.13;;;;;;;-0.17;100.00;96720.88;5024320;28;20112;-70
2022/04/10 05:00:13;;;;;;;12.68;3.40;;;;;;;-0.26;100.00;96702.69;5039429;28;20037;-70
2022/04/10 05:02:46;;;;;;;9.80;2.83;;;;;;;-0.26;100.00;96721.91;5028635;28;20146;-70
2022/04/10 05:05:12;;;;;;;8.07;3.38;;;;;;;-0.15;100.00;96725.97;5052708;28;20580;-70
2022/04/10 05:07:37;;;;;;;9.98;3.30;;;;;;;-0.18;100.00;96726.31;5032011;28;20107;-70
2022/04/10 05:10:03;;;;;;;11.20;3.58;;;;;;;-0.13;100.00;96727.44;5022267;28;20242;-70
2022/04/10 05:12:32;;;;;;;10.25;3.20;;;;;;;-0.19;100.00;96729.94;5026875;28;20037;-71
2022/04/10 05:14:59;;;;;;;8.48;3.42;;;;;;;-0.15;100.00;96737.31;5021864;28;20045;-70
2022/04/10 05:17:26;;;;;;;8.02;3.15;;;;;;;-0.26;100.00;96714.03;5025439;28;20388;-69
2022/04/10 05:19:54;;;;;;;8.32;3.17;;;;;;;-0.03;100.00;96742.97;5032383;28;20326;-70
2022/04/10 05:22:20;;;;;;;8.15;3.33;;;;;;;0.22;100.00;96754.13;5009070;28;20108;-69
2022/04/10 05:24:56;;;;;;;10.80;3.53;;;;;;;0.34;100.00;96747.47;5025029;28;20050;-69
2022/04/10 05:27:22;;;;;;;7.55;3.25;;;;;;;0.50;100.00;96747.34;5032595;28;20102;-69
2022/04/10 05:29:48;;;;;;;11.40;3.60;;;;;;;0.55;100.00;96755.53;5024622;28;20033;-70
2022/04/10 05:32:13;;;;;;;9.32;3.53;;;;;;;0.62;100.00;96758.25;5030909;28;20591;-69
2022/04/10 05:34:39;;;;;;;10.65;3.65;;;;;;;0.75;100.00;96758.44;5030580;28;20045;-69
2022/04/10 05:37:05;;;;;;;5.93;3.10;;;;;;;0.72;100.00;96755.38;5016042;28;20638;-70
2022/04/10 05:39:33;;;;;;;7.40;3.13;;;;;;;0.81;100.00;96762.19;5031819;28;20539;-71
2022/04/10 05:41:58;;;;;;;11.05;3.50;;;;;;;0.90;100.00;96769.00;5018909;28;20084;-70
2022/04/10 05:44:24;;;;;;;11.70;3.53;;;;;;;1.04;100.00;96768.22;5027619;28;20405;-70
2022/04/10 05:46:50;;;;;;;9.38;3.80;;;;;;;1.14;100.00;96773.22;5030602;28;20468;-70
2022/04/10 05:49:19;;;;;;;10.63;4.20;;;;;;;1.17;100.00;96769.38;5029603;28;20499;-69
2022/04/10 05:51:46;;;;;;;10.65;3.95;;;;;;;1.26;100.00;96768.31;5032013;28;20069;-70
2022/04/10 05:54:13;;;;;;;12.43;3.60;;;;;;;1.32;100.00;96768.41;5011004;28;20589;-70
2022/04/10 05:56:42;;;;;;;;;;;;;;;1.32;100.00;96778.09;5028840;28;20049;-70
2022/04/10 05:59:08;;;;;;;10.80;3.55;;;;;;;1.27;100.00;96768.13;5032221;28;20405;-70
2022/04/10 06:01:36;;;;;;;10.85;3.60;;;;;;;1.19;100.00;96785.84;5023093;28;20072;-69
2022/04/10 06:04:02;;;;;;;9.25;2.58;;;;;;;1.31;100.00;96777.28;5013821;28;20526;-70
2022/04/10 06:06:28;;;;;;;10.65;2.75;;;;;;;1.45;100.00;96780.94;5041154;28;20737;-71
2022/04/10 06:09:01;;;;;;;10.15;2.70;;;;;;;1.33;100.00;96777.94;5025081;28;20041;-71
2022/04/10 06:11:29;;;;;;;8.80;2.75;;;;;;;1.14;100.00;96780.31;5035754;28;20033;-71
2022/04/10 06:13:55;;;;;;;5.82;2.47;;;;;;;1.02;100.00;96780.75;5030470;28;20037;-69
2022/04/10 06:16:25;;;;;;;5.63;2.23;;;;;;;1.10;100.00;96782.50;4331860;28;10000757;-69
2022/04/10 06:18:51;;;;;;;17.10;3.22;;;;;;;1.49;100.00;96774.31;5020678;28;20080;-68
2022/04/10 06:21:17;;;;;;;6.38;2.10;;;;;;;1.83;100.00;96789.50;5037294;28;20296;-70
2022/04/10 06:23:45;;;;;;;15.50;2.75;;;;;;;2.03;100.00;96791.56;5051964;28;20140;-70
2022/04/10 06:26:21;;;;;;;6.72;2.35;;;;;;;2.24;100.00;96794.22;5024448;28;20048;-69
2022/04/10 06:28:47;;;;;;;10.93;2.17;;;;;;;2.26;100.00;96792.22;5023304;28;20029;-70
2022/04/10 06:31:20;;;;;;;7.97;2.00;;;;;;;2.19;100.00;96799.25;5036827;28;20077;-69
2022/04/10 06:33:47;;;;;;;6.50;2.47;;;;;;;2.38;100.00;96789.88;5020928;28;20041;-70
2022/04/10 06:36:13;;;;;;;10.80;2.70;;;;;;;2.53;100.00;96787.19;5018887;28;20068;-70
2022/04/10 06:38:39;;;;;;;8.95;2.50;;;;;;;2.62;100.00;96794.78;5051894;28;20045;-70
2022/04/10 06:41:12;;;;;;;8.30;2.20;;;;;;;2.60;100.00;96793.34;5020972;28;20480;-70
2022/04/10 06:43:37;;;;;;;8.35;2.42;;;;;;;2.38;100.00;96789.88;5019380;28;20120;-70
2022/04/10 06:46:29;;;;;;;;;;;;;;;2.25;100.00;96801.13;5017640;28;20037;-69
2022/04/10 06:49:01;;;;;;;4.88;1.95;;;;;;;2.19;100.00;96804.53;5048624;28;19927;-71
2022/04/10 06:51:27;;;;;;;4.47;1.83;;;;;;;2.05;100.00;96800.94;5022060;28;20053;-70
2022/04/10 06:53:55;;;;;;;7.93;2.03;;;;;;;1.89;100.00;96796.69;5023377;28;20053;-69
2022/04/10 06:56:22;;;;;;;7.25;2.08;;;;;;;1.85;100.00;96805.97;5028406;28;20148;-69
2022/04/10 06:58:47;;;;;;;6.50;2.10;;;;;;;1.81;100.00;96810.00;5022195;28;21056;-70
2022/04/10 07:01:14;;;;;;;6.18;1.98;;;;;;;1.76;100.00;96807.09;5002466;28;20385;-70
2022/04/10 07:03:40;;;;;;;10.27;2.10;;;;;;;1.75;100.00;96807.28;5021882;28;20122;-70
2022/04/10 07:06:09;;;;;;;8.60;2.30;;;;;;;1.70;100.00;96802.53;5036003;28;20077;-70
2022/04/10 07:08:37;;;;;;;9.90;2.63;;;;;;;1.70;100.00;96807.00;5035346;28;20112;-70
2022/04/10 07:11:03;;;;;;;8.25;2.92;;;;;;;1.71;100.00;96809.44;5030647;28;20048;-71
2022/04/10 07:13:32;;;;;;;6.82;2.33;;;;;;;1.82;100.00;96819.56;5019174;28;20025;-70
2022/04/10 07:15:59;;;;;;;7.32;2.80;;;;;;;2.15;100.00;96821.75;5029265;28;20037;-69
2022/04/10 07:18:24;;;;;;;9.15;3.33;;;;;;;2.58;100.00;96822.59;5020079;28;20029;-71
2022/04/10 07:20:53;;;;;;;11.35;2.95;;;;;;;3.02;100.00;96818.88;5028795;28;20056;-70
2022/04/10 07:26:12;;;;;;;8.30;3.17;;;;;;;3.08;100.00;96813.66;5027692;28;20124;-70
2022/04/10 07:28:38;;;;;;;12.48;2.83;;;;;;;3.20;100.00;96815.78;5022684;28;20041;-69
2022/04/10 07:31:08;;;;;;;10.85;2.97;;;;;;;3.32;100.00;96817.69;5026570;28;20465;-69
2022/04/10 07:33:36;;;;;;;9.35;2.80;;;;;;;3.51;100.00;96818.81;5053214;28;20140;-70
2022/04/10 07:36:11;;;;;;;7.80;2.92;;;;;;;3.72;100.00;96822.38;5025011;28;20034;-70
2022/04/10 07:38:38;;;;;;;10.35;3.22;;;;;;;3.66;100.00;96821.34;5007563;28;20454;-69
2022/04/10 07:41:08;;;;;;;9.98;2.85;;;;;;;3.75;100.00;96829.94;5053590;28;20033;-69
2022/04/10 07:43:42;;;;;;;6.65;2.53;;;;;;;3.72;100.00;96835.59;5040888;28;20033;-70
2022/04/10 07:48:56;;;;;;;8.43;2.78;;;;;;;3.40;100.00;96831.75;5025653;28;20800;-70
2022/04/10 07:51:26;;;;;;;9.30;2.50;;;;;;;3.41;100.00;96836.03;5023367;28;20045;-69
2022/04/10 07:54:27;;;;;;;8.07;3.38;;;;;;;3.16;100.00;96841.78;5018665;28;20428;-71
2022/04/10 07:56:56;;;;;;;7.10;2.65;;;;;;;3.20;100.00;96847.53;5056545;28;20370;-70
2022/04/10 07:59:27;;;;;;;7.95;2.72;;;;;;;3.44;100.00;96839.13;5030086;28;20087;-69
2022/04/10 08:01:53;;;;;;;6.75;2.42;;;;;;;3.48;100.00;96848.31;5056376;28;20046;-70
2022/04/10 08:04:25;;;;;;;8.13;2.22;;;;;;;3.56;100.00;96845.50;5053494;28;20069;-70
2022/04/10 08:07:10;;;;;;;4.30;1.25;;;;;;;3.62;100.00;96838.63;5032435;28;20044;-70
2022/04/10 08:09:35;;;;;;;7.28;2.45;;;;;;;3.93;100.00;96848.75;5024649;28;20115;-70
2022/04/10 08:12:01;;;;;;;5.03;1.83;;;;;;;4.01;100.00;96838.00;5024313;28;20073;-69
2022/04/10 08:14:26;;;;;;;8.93;2.55;;;;;;;4.30;100.00;96833.41;5023722;28;20037;-70
2022/04/10 08:16:52;;;;;;;11.05;2.33;;;;;;;4.63;100.00;96850.19;5035305;28;20075;-71
2022/04/10 08:19:17;;;;;;;10.32;2.38;;;;;;;4.82;100.00;96851.22;5020983;28;20355;-70
2022/04/10 08:21:43;;;;;;;10.68;2.35;;;;;;;4.87;100.00;96855.94;5022950;28;20458;-70
2022/04/10 08:24:09;;;;;;;6.20;2.03;;;;;;;4.81;100.00;96867.34;5024816;28;20353;-70
2022/04/10 08:26:35;;;;;;;5.65;2.15;;;;;;;4.83;100.00;96865.34;5022340;28;20037;-70
2022/04/10 08:29:01;;;;;;;8.95;2.42;;;;;;;4.91;100.00;96858.00;5021469;28;20034;-70
2022/04/10 08:31:28;;;;;;;5.65;2.08;;;;;;;5.18;100.00;96853.50;5020711;28;20065;-70
2022/04/10 08:33:54;;;;;;;7.85;2.42;;;;;;;5.16;100.00;96866.16;5027882;28;20044;-70
2022/04/10 08:36:20;;;;;;;5.85;2.42;;;;;;;4.98;100.00;96863.28;5031450;28;20084;-70
2022/04/10 08:38:46;;;;;;;4.05;1.88;;;;;;;4.81;100.00;96867.34;5024143;28;20504;-70
2022/04/10 08:41:12;;;;;;;5.82;1.65;;;;;;;4.63;100.00;96879.34;5025099;28;20052;-71
2022/04/10 08:43:38;;;;;;;5.00;2.13;;;;;;;4.60;100.00;96876.31;5027326;28;20519;-70
2022/04/10 08:46:04;;;;;;;5.75;1.98;;;;;;;4.68;100.00;96871.63;5026484;28;20151;-69
2022/04/10 08:48:31;;;;;;;3.00;1.70;;;;;;;4.62;100.00;96875.06;5026494;28;20052;-70
2022/04/10 08:50:57;;;;;;;7.47;2.05;;;;;;;4.32;100.00;96879.88;5025176;28;20176;-71
2022/04/10 08:53:24;;;;;;;6.28;2.60;;;;;;;4.22;100.00;96879.44;5024518;28;20571;-69
2022/04/10 08:55:50;;;;;;;7.63;1.90;;;;;;;4.14;100.00;96893.69;5012733;28;20043;-70
2022/04/10 08:58:17;;;;;;;6.68;2.00;;;;;;;4.31;100.00;96895.97;5022830;28;20048;-69
2022/04/10 09:00:44;;;;;;;8.07;1.52;;;;;;;4.51;100.00;96885.44;5021616;28;20045;-69
2022/04/10 09:03:10;;;;;;;7.93;2.22;;;;;;;5.04;100.00;96889.81;5025194;28;20045;-69
2022/04/10 09:05:35;;;;;;;14.82;1.85;;;;;;;5.18;100.00;96890.63;5027443;28;20080;-70
2022/04/10 09:08:14;;;;;;;8.23;1.90;;;;;;;5.27;100.00;96878.81;5023896;28;20045;-71
2022/04/10 09:10:52;;;;;;;17.65;2.53;;;;;;;5.37;100.00;96890.84;5026781;28;20476;-69
2022/04/10 09:13:43;;;;;;;5.72;2.30;;;;;;;5.56;100.00;96887.38;5027098;28;20037;-69
2022/04/10 09:16:11;;;;;;;3.55;1.50;;;;;;;5.67;100.00;96888.56;5024982;28;20076;-69
2022/04/10 09:19:08;;;;;;;4.15;1.67;;;;;;;5.68;100.00;96891.03;5022472;28;20041;-69
2022/04/10 09:21:40;;;;;;;10.82;2.47;;;;;;;5.84;100.00;96890.59;5025643;28;20396;-69
2022/04/10 09:24:11;;;;;;;7.78;1.80;;;;;;;5.98;100.00;96894.03;5024535;28;20045;-70
2022/04/10 09:26:50;;;;;;;6.38;2.13;;;;;;;6.06;100.00;96898.31;5027189;28;20041;-71
2022/04/10 09:29:20;;;;;;;8.45;2.25;;;;;;;6.02;98.81;96897.13;5026426;28;20056;-69
2022/04/10 09:31:47;;;;;;;3.50;1.42;;;;;;;5.68;96.19;96899.00;5028358;28;20055;-71
2022/04/10 09:34:20;;;;;;;6.53;1.48;;;;;;;5.57;97.22;96884.50;5025957;28;20044;-69
2022/04/10 09:36:48;;;;;;;10.45;2.10;;;;;;;5.43;100.00;96898.78;5025419;28;20046;-70
2022/04/10 09:39:32;;;;;;;5.55;2.03;;;;;;;4.98;100.00;96900.41;5027141;28;20487;-70
2022/04/10 09:42:02;;;;;;;7.30;1.70;;;;;;;4.80;100.00;96894.88;5025625;28;20391;-71
2022/04/10 09:44:32;;;;;;;10.98;1.92;;;;;;;4.49;100.00;96893.59;5029800;28;20116;-69
2022/04/10 09:47:02;;;;;;;6.63;1.90;;;;;;;4.39;100.00;96909.06;5024252;28;20045;-69
2022/04/10 09:49:32;;;;;;;5.17;1.80;;;;;;;4.28;100.00;96912.25;5026235;28;20041;-71
2022/04/10 09:51:59;;;;;;;5.05;1.17;;;;;;;3.84;100.00;96932.81;5025465;28;20061;-69
2022/04/10 09:54:25;;;;;;;3.38;1.70;;;;;;;3.45;100.00;96949.25;5026875;28;20041;-70
2022/04/10 09:56:53;;;;;;;9.40;2.33;;;;;;;3.18;100.00;96939.44;5024775;28;20060;-69
2022/04/10 09:59:25;;;;;;;6.90;2.63;;;;;;;3.24;100.00;96933.38;5022369;28;20163;-69
2022/04/10 10:01:52;;;;;;;9.75;2.95;;;;;;;4.03;100.00;96928.66;5021599;28;20161;-69
2022/04/10 10:04:18;;;;;;;6.22;2.15;;;;;;;4.42;100.00;96927.19;5024196;28;20044;-69
2022/04/10 10:06:44;;;;;;;4.82;2.55;;;;;;;4.65;100.00;96921.56;5022943;28;20440;-70
2022/04/10 10:09:10;;;;;;;6.40;2.10;;;;;;;4.72;100.00;96931.16;5022419;28;20234;-70
2022/04/10 10:11:36;;;;;;;9.93;2.65;;;;;;;5.12;100.00;96920.63;5023112;28;20533;-70
2022/04/10 10:14:01;;;;;;;5.15;2.10;;;;;;;5.39;100.00;96916.16;5025524;28;20465;-71
2022/04/10 10:16:27;;;;;;;5.10;2.17;;;;;;;6.14;100.00;96906.06;5023839;28;20136;-69
2022/04/10 10:18:53;;;;;;;8.13;2.78;;;;;;;7.19;100.00;96898.56;5023274;28;20342;-71
2022/04/10 10:21:20;;;;;;;6.53;2.50;;;;;;;7.81;100.00;96892.28;5021934;28;20041;-69
2022/04/10 10:23:50;;;;;;;8.10;2.75;;;;;;;7.93;100.00;96884.34;5023852;28;20071;-71
2022/04/10 10:26:24;;;;;;;7.80;3.13;;;;;;;7.28;100.00;96904.44;5025268;28;20041;-69
2022/04/10 10:29:05;;;;;;;8.55;2.80;;;;;;;6.79;100.00;96906.81;5024636;28;20358;-69
2022/04/10 10:31:57;;;;;;;5.70;2.22;;;;;;;6.53;100.00;96905.06;5027161;28;20056;-70
2022/04/10 10:34:25;;;;;;;6.13;2.13;;;;;;;6.54;100.00;96904.06;5024258;28;20144;-69
2022/04/10 10:36:57;;;;;;;12.63;2.85;;;;;;;7.47;100.00;96892.78;5026623;28;20481;-70
2022/04/10 10:39:22;;;;;;;;;;;;;;;8.30;100.00;96898.50;5024560;28;20493;-69
2022/04/10 10:41:52;;;;;;;4.78;2.50;;;;;;;8.99;97.07;96883.06;5022956;28;20028;-70
2022/04/10 10:44:38;;;;;;;10.02;2.60;;;;;;;10.08;91.56;96883.50;5032813;28;20155;-69
2022/04/10 10:47:04;;;;;;;8.20;2.58;;;;;;;10.44;89.23;96879.75;5021000;28;20528;-70
2022/04/10 10:49:31;;;;;;;7.18;2.38;;;;;;;11.00;85.84;96882.69;5022830;28;20057;-69
2022/04/10 10:51:58;;;;;;;8.82;2.40;;;;;;;11.93;73.18;96868.66;5022541;28;20060;-72
2022/04/10 10:54:31;;;;;;;6.15;2.45;;;;;;;14.08;56.52;96875.09;5024261;28;20044;-70
2022/04/10 10:56:57;;;;;;;5.43;2.15;;;;;;;12.99;61.04;96862.94;5007157;28;20072;-70
2022/04/10 10:59:35;;;;;;;6.57;2.17;;;;;;;11.27;57.95;96867.59;5029917;28;20033;-70
2022/04/10 11:02:07;;;;;;;4.90;1.30;;;;;;;9.79;67.61;96869.22;5026770;28;20084;-70
2022/04/10 11:04:35;;;;;;;4.38;1.77;;;;;;;9.29;81.23;96879.56;5028792;28;20052;-70
2022/04/10 11:07:20;;;;;;;10.60;2.10;;;;;;;8.78;73.30;96879.06;5025896;28;20038;-71
2022/04/10 11:10:03;;;;;;;4.97;1.42;;;;;;;7.68;94.57;96878.28;5028820;28;20144;-69
2022/04/10 11:12:33;;;;;;;2.75;1.10;;;;;;;6.38;100.00;96892.09;5026950;28;20042;-71
2022/04/10 11:15:03;;;;;;;9.63;3.08;;;;;;;6.13;100.00;96881.31;5025392;28;20041;-70
2022/04/10 11:17:32;;;;;;;5.03;1.90;;;;;;;6.89;100.00;96883.19;5029526;28;20111;-70
2022/04/10 11:20:02;;;;;;;4.05;1.98;;;;;;;6.74;100.00;96881.88;5026303;28;20504;-69
2022/04/10 11:22:49;;;;;;;5.55;2.10;;;;;;;6.35;100.00;96887.16;5027962;28;20554;-69
2022/04/10 11:25:18;;;;;;;6.70;2.20;;;;;;;6.00;100.00;96892.00;5026420;28;20033;-69
2022/04/10 11:27:47;;;;;;;6.63;2.15;;;;;;;5.90;100.00;96885.44;5026095;28;20033;-71
2022/04/10 11:30:15;;;;;;;7.70;2.58;;;;;;;7.65;100.00;96876.06;5026406;28;20199;-69
2022/04/10 11:32:47;;;;;;;5.57;2.10;;;;;;;7.87;100.00;96879.94;5028830;28;20095;-70
2022/04/10 11:35:19;;;;;;;8.68;2.05;;;;;;;7.79;94.16;96873.03;5024204;28;20715;-70
2022/04/10 11:37:47;;;;;;;9.68;2.20;;;;;;;7.56;99.89;96877.38;5027872;28;20052;-71
2022/04/10 11:40:17;;;;;;;6.03;1.77;;;;;;;9.13;92.85;96875.69;5025328;28;20041;-71
2022/04/10 11:42:42;;;;;;;7.47;2.58;;;;;;;13.03;65.28;96866.75;5024952;28;20507;-70